Time;durP1;ratioP1;P1;durP2;ratioP2;P2;SDS_P1;SDS_P2;PMS_P1;PMS_P2;Temp;Humidity;BMP_temperature;BMP_pressure;BME280_temperature;BME280_humidity;BME280_pressure;Samples;Min_cycle;Max_cycle;Signal;HPM_P1;HPM_P2
2022/09/09 00:01:30;;;;;;;9.85;5.67;;;;;;;11.98;57.18;101116.76;1757351;79;21016;-62
2022/09/09 00:04:16;;;;;;;8.65;5.25;;;;;;;11.94;56.82;101112.68;1764250;79;21040;-61
2022/09/09 00:07:12;;;;;;;9.70;5.47;;;;;;;11.90;56.56;101107.22;1765101;79;21097;-62
2022/09/09 00:09:44;;;;;;;11.22;5.53;;;;;;;11.86;56.90;101107.93;1754725;79;21104;-61
2022/09/09 00:12:18;;;;;;;9.58;5.47;;;;;;;11.84;56.99;101112.48;1761791;80;22848;-62
2022/09/09 00:14:59;;;;;;;10.70;5.50;;;;;;;11.81;57.38;101108.75;1766642;79;21082;-62
2022/09/09 00:17:36;;;;;;;7.72;4.70;;;;;;;11.82;57.42;101105.66;1766055;79;21070;-62
2022/09/09 00:20:13;;;;;;;9.15;5.70;;;;;;;11.87;57.32;101102.20;1768723;79;22521;-61
2022/09/09 00:22:45;;;;;;;9.68;5.72;;;;;;;11.91;57.34;101104.99;1759479;79;21152;-61
2022/09/09 00:25:25;;;;;;;11.55;5.78;;;;;;;11.99;57.00;101114.50;1766272;79;21492;-62
2022/09/09 00:27:51;;;;;;;7.95;5.20;;;;;;;12.04;56.57;101105.77;1762478;80;21023;-62
2022/09/09 00:30:24;;;;;;;8.78;4.95;;;;;;;12.05;56.51;101123.73;1761328;79;21083;-62
2022/09/09 00:32:57;;;;;;;9.08;4.75;;;;;;;12.03;56.27;101123.02;1763209;80;20987;-62
2022/09/09 00:35:34;;;;;;;8.25;4.65;;;;;;;12.00;56.14;101134.66;1737364;79;21949;-62
2022/09/09 00:38:05;;;;;;;9.10;5.45;;;;;;;12.00;55.97;101140.38;1763333;79;21084;-62
2022/09/09 00:40:35;;;;;;;8.70;5.12;;;;;;;11.94;56.08;101140.86;1758045;79;21053;-62
2022/09/09 00:43:32;;;;;;;9.53;5.62;;;;;;;11.88;56.34;101147.38;1763940;79;21584;-61
2022/09/09 00:46:33;;;;;;;9.10;5.65;;;;;;;11.81;56.48;101153.58;1738423;80;21055;-62
2022/09/09 00:49:21;;;;;;;9.78;5.00;;;;;;;11.76;56.52;101158.83;1741842;81;21556;-63
2022/09/09 00:52:06;;;;;;;8.28;4.60;;;;;;;11.69;56.56;101155.31;1744563;81;21227;-62
2022/09/09 00:55:06;;;;;;;9.15;4.85;;;;;;;11.63;56.81;101161.05;1745176;80;21023;-62
2022/09/09 00:57:35;;;;;;;13.55;6.22;;;;;;;11.59;57.06;101170.11;1716884;82;21096;-62
2022/09/09 01:00:28;;;;;;;11.55;5.20;;;;;;;11.53;57.18;101169.22;1742547;81;21691;-62
2022/09/09 01:03:32;;;;;;;9.10;5.28;;;;;;;11.48;57.20;101166.94;1742197;81;21812;-62
2022/09/09 01:06:29;;;;;;;10.23;5.10;;;;;;;11.43;57.41;101170.83;1733291;81;21565;-62
2022/09/09 01:09:17;;;;;;;9.45;5.17;;;;;;;11.37;57.94;101175.23;1740840;81;21015;-62
2022/09/09 01:12:12;;;;;;;8.83;5.20;;;;;;;11.30;58.26;101174.34;1741949;81;21031;-63
2022/09/09 01:14:51;;;;;;;12.50;5.20;;;;;;;11.23;58.37;101177.50;1745782;81;21087;-61
2022/09/09 01:17:27;;;;;;;9.03;5.00;;;;;;;11.14;58.45;101186.41;1745007;81;21150;-62
2022/09/09 01:20:10;;;;;;;9.63;4.67;;;;;;;11.10;58.54;101184.12;1739909;81;21107;-62
2022/09/09 01:23:24;;;;;;;9.73;5.10;;;;;;;11.09;58.50;101183.74;1733438;81;21044;-62
2022/09/09 01:26:42;;;;;;;11.83;5.28;;;;;;;11.06;58.41;101183.50;1681111;84;21492;-62
2022/09/09 01:29:16;;;;;;;8.25;5.10;;;;;;;11.03;58.13;101185.48;1680845;83;21046;-62
2022/09/09 01:31:58;;;;;;;11.45;5.35;;;;;;;10.97;58.14;101181.48;1738888;81;21185;-62
2022/09/09 01:34:30;;;;;;;8.80;5.40;;;;;;;10.95;58.14;101185.54;1744947;81;21090;-62
2022/09/09 01:37:06;;;;;;;10.13;5.33;;;;;;;10.94;57.99;101179.92;1741128;81;21575;-61
2022/09/09 01:39:35;;;;;;;9.43;5.00;;;;;;;10.95;57.98;101172.86;1740609;80;21058;-61
2022/09/09 01:42:05;;;;;;;9.18;5.37;;;;;;;10.93;58.06;101179.55;1741622;81;21090;-62
2022/09/09 01:44:32;;;;;;;10.35;4.58;;;;;;;10.93;58.22;101178.71;1719528;81;21092;-62
2022/09/09 01:46:58;;;;;;;11.90;5.33;;;;;;;10.95;58.11;101177.64;1750669;79;21063;-61
2022/09/09 01:49:25;;;;;;;10.32;5.90;;;;;;;11.08;57.99;101179.45;1754605;80;21051;-62
2022/09/09 01:51:54;;;;;;;8.60;4.75;;;;;;;11.15;57.83;101180.21;1759727;79;21489;-62
2022/09/09 01:54:26;;;;;;;9.85;5.47;;;;;;;11.20;57.81;101173.31;1760413;79;21420;-62
2022/09/09 01:57:23;;;;;;;10.68;5.35;;;;;;;11.25;58.03;101175.63;1689533;82;21902;-62
2022/09/09 02:00:11;;;;;;;15.65;5.62;;;;;;;11.30;58.27;101166.92;1750881;79;21533;-62
2022/09/09 02:02:58;;;;;;;13.03;6.40;;;;;;;11.30;58.68;101165.13;1750283;79;21064;-62
2022/09/09 02:05:41;;;;;;;9.28;5.47;;;;;;;11.30;59.19;101166.92;1759666;79;21058;-62
2022/09/09 02:08:27;;;;;;;12.88;5.67;;;;;;;11.32;59.44;101161.06;1758251;79;21550;-61
2022/09/09 02:11:12;;;;;;;10.28;5.42;;;;;;;11.33;59.42;101162.27;1751538;79;22073;-62
2022/09/09 02:13:46;;;;;;;11.15;4.37;;;;;;;11.32;59.42;101160.58;1756504;80;21063;-62
2022/09/09 02:16:34;;;;;;;8.08;4.80;;;;;;;11.26;59.08;101153.58;1757035;79;21073;-62
2022/09/09 02:19:36;;;;;;;11.03;5.08;;;;;;;11.20;58.98;101158.82;1758332;79;21045;-62
2022/09/09 02:22:07;;;;;;;9.05;4.80;;;;;;;11.11;58.92;101162.09;1753345;79;21543;-62
2022/09/09 02:24:37;;;;;;;9.88;4.80;;;;;;;11.05;59.36;101159.41;1733952;80;22029;-62
2022/09/09 02:27:09;;;;;;;9.33;5.03;;;;;;;11.04;59.23;101157.72;1750552;79;21508;-62
2022/09/09 02:29:41;;;;;;;9.70;5.55;;;;;;;11.08;58.57;101157.06;1755204;79;21074;-62
2022/09/09 02:32:14;;;;;;;9.93;5.10;;;;;;;11.07;58.64;101158.83;1747244;79;21032;-62
2022/09/09 02:34:47;;;;;;;10.10;5.12;;;;;;;11.06;58.80;101159.80;1755897;80;21091;-62
2022/09/09 02:37:17;;;;;;;8.53;4.87;;;;;;;11.05;59.28;101154.63;1753824;80;21827;-62
2022/09/09 02:39:44;;;;;;;9.63;5.12;;;;;;;11.05;59.40;101150.69;1747669;80;21021;-62
2022/09/09 02:42:14;;;;;;;8.55;4.67;;;;;;;11.02;59.30;101153.04;1756045;79;21059;-62
2022/09/09 02:44:41;;;;;;;9.78;5.20;;;;;;;10.97;59.15;101151.20;1745373;80;21047;-63
2022/09/09 02:47:20;;;;;;;9.28;5.03;;;;;;;10.92;59.13;101152.00;1700417;82;21000;-62
2022/09/09 02:50:16;;;;;;;8.60;4.62;;;;;;;10.85;58.85;101159.48;1764041;79;22165;-62
2022/09/09 02:53:20;;;;;;;8.23;4.95;;;;;;;10.81;58.80;101151.89;1759470;79;21027;-62
2022/09/09 02:55:53;;;;;;;9.48;4.55;;;;;;;10.74;59.09;101152.78;1765721;79;21034;-62
2022/09/09 02:58:20;;;;;;;8.93;4.90;;;;;;;10.69;59.23;101152.25;1759574;79;21038;-62
2022/09/09 03:00:55;;;;;;;8.83;4.95;;;;;;;10.64;59.35;101164.89;1762881;79;22413;-62
2022/09/09 03:03:21;;;;;;;9.65;4.72;;;;;;;10.62;59.54;101151.00;1736042;80;22186;-62
2022/09/09 03:05:49;;;;;;;7.92;4.03;;;;;;;10.63;59.58;101144.80;1763529;79;21050;-62
2022/09/09 03:08:16;;;;;;;7.53;4.70;;;;;;;10.70;59.65;101149.52;1765640;79;21121;-62
2022/09/09 03:10:44;;;;;;;8.98;5.15;;;;;;;10.73;60.18;101151.95;1769084;79;21042;-62
2022/09/09 03:13:15;;;;;;;10.10;4.25;;;;;;;10.79;60.19;101154.63;1724932;81;21611;-62
2022/09/09 03:15:41;;;;;;;6.80;3.87;;;;;;;10.80;60.21;101162.90;1764131;79;21253;-62
2022/09/09 03:18:09;;;;;;;6.85;4.10;;;;;;;10.81;60.38;101170.31;1760011;79;21023;-62
2022/09/09 03:20:36;;;;;;;7.97;4.20;;;;;;;10.81;60.04;101171.18;1759593;79;21659;-62
2022/09/09 03:23:04;;;;;;;8.70;5.03;;;;;;;10.77;59.77;101169.20;1720130;81;21039;-62
2022/09/09 03:25:31;;;;;;;7.47;4.15;;;;;;;10.76;59.69;101181.19;1759489;79;21105;-62
2022/09/09 03:27:58;;;;;;;9.68;4.30;;;;;;;10.71;59.72;101185.92;1765565;79;21113;-62
2022/09/09 03:30:26;;;;;;;7.35;4.25;;;;;;;10.68;59.86;101191.39;1764071;79;21071;-62
2022/09/09 03:32:55;;;;;;;8.23;4.72;;;;;;;10.69;59.84;101193.05;1759982;79;21548;-62
2022/09/09 03:35:22;;;;;;;7.20;4.28;;;;;;;10.66;59.59;101196.75;1770402;79;21038;-63
2022/09/09 03:37:49;;;;;;;8.95;4.30;;;;;;;10.64;59.47;101185.49;1701558;82;21269;-62
2022/09/09 03:40:16;;;;;;;9.30;4.55;;;;;;;10.61;59.64;101189.64;1759889;79;21147;-62
2022/09/09 03:42:44;;;;;;;8.40;4.08;;;;;;;10.57;59.71;101182.87;1761001;80;21572;-62
2022/09/09 03:45:10;;;;;;;8.73;4.72;;;;;;;10.57;59.30;101183.75;1761111;79;21082;-62
2022/09/09 03:47:38;;;;;;;6.60;4.15;;;;;;;10.54;59.03;101189.20;1771174;79;21044;-62
2022/09/09 03:50:08;;;;;;;6.72;3.77;;;;;;;10.52;59.23;101191.56;1763860;79;21091;-62
2022/09/09 03:52:38;;;;;;;8.60;3.62;;;;;;;10.51;59.27;101199.94;1764904;79;21484;-63
2022/09/09 03:55:07;;;;;;;8.08;4.50;;;;;;;10.57;59.11;101188.14;1757485;79;21042;-62
2022/09/09 03:57:34;;;;;;;9.95;4.55;;;;;;;10.62;59.09;101187.36;1760787;79;21039;-62
2022/09/09 04:00:04;;;;;;;8.13;3.15;;;;;;;10.63;59.06;101191.69;1772943;79;21023;-62
2022/09/09 04:02:32;;;;;;;7.55;3.87;;;;;;;10.66;58.96;101198.52;1766043;79;21665;-61
2022/09/09 04:04:59;;;;;;;6.92;3.90;;;;;;;10.68;59.04;101196.17;1760725;79;21777;-62
2022/09/09 04:07:28;;;;;;;7.47;4.17;;;;;;;10.70;59.21;101193.44;1760683;79;21088;-62
2022/09/09 04:09:57;;;;;;;7.58;3.62;;;;;;;10.73;59.12;101202.45;1762896;79;21293;-62
2022/09/09 04:12:24;;;;;;;7.70;3.92;;;;;;;10.74;59.06;101202.34;1758268;79;21039;-62
2022/09/09 04:14:51;;;;;;;7.22;3.92;;;;;;;10.74;59.06;101205.42;1766811;79;21015;-62
2022/09/09 04:17:18;;;;;;;8.65;4.62;;;;;;;10.72;59.12;101204.70;1759032;79;21239;-62
2022/09/09 04:19:44;;;;;;;11.63;4.12;;;;;;;10.72;59.07;101198.11;1766855;79;21050;-62
2022/09/09 04:22:11;;;;;;;8.08;3.95;;;;;;;10.71;59.38;101201.72;1723141;81;21102;-62
2022/09/09 04:24:37;;;;;;;6.72;3.75;;;;;;;10.70;59.29;101203.97;1762519;79;21545;-62
2022/09/09 04:27:04;;;;;;;6.72;4.08;;;;;;;10.70;59.38;101208.75;1766934;79;21003;-62
2022/09/09 04:29:31;;;;;;;6.80;3.67;;;;;;;10.71;59.17;101214.88;1765946;79;21176;-62
2022/09/09 04:31:58;;;;;;;7.10;4.05;;;;;;;10.73;58.98;101215.61;1743815;80;21074;-62
2022/09/09 04:34:25;;;;;;;7.72;4.22;;;;;;;10.75;58.86;101225.07;1760839;79;21036;-62
2022/09/09 04:36:54;;;;;;;7.28;4.00;;;;;;;10.77;58.72;101227.60;1766273;79;21030;-63
2022/09/09 04:39:21;;;;;;;7.80;4.10;;;;;;;10.79;58.66;101225.70;1763186;79;20972;-63
2022/09/09 04:41:49;;;;;;;7.85;4.58;;;;;;;10.82;58.63;101233.40;1760896;79;21142;-63
2022/09/09 04:44:16;;;;;;;7.58;4.12;;;;;;;10.87;58.52;101233.09;1763319;80;22364;-62
2022/09/09 04:46:43;;;;;;;9.13;4.10;;;;;;;10.99;58.27;101240.64;1763290;79;21626;-62
2022/09/09 04:49:10;;;;;;;8.88;4.33;;;;;;;11.10;57.96;101234.17;1753000;80;21044;-61
2022/09/09 04:51:37;;;;;;;8.75;4.60;;;;;;;11.20;58.03;101231.27;1751884;81;21054;-61
2022/09/09 04:54:05;;;;;;;7.75;4.50;;;;;;;11.33;57.49;101234.73;1758675;81;21936;-61
2022/09/09 04:56:32;;;;;;;7.97;4.75;;;;;;;11.44;57.24;101235.77;1760159;81;21079;-62
2022/09/09 04:58:59;;;;;;;8.63;4.50;;;;;;;11.50;57.27;101243.26;1748862;81;21122;-62
2022/09/09 05:01:36;;;;;;;7.83;4.67;;;;;;;11.53;57.33;101242.56;1751177;81;21524;-60
2022/09/09 05:04:04;;;;;;;7.20;4.33;;;;;;;11.56;57.36;101238.02;1750525;81;21023;-62
2022/09/09 05:06:32;;;;;;;8.53;4.40;;;;;;;11.61;57.27;101234.09;1744787;81;22136;-62
2022/09/09 05:09:00;;;;;;;9.58;4.50;;;;;;;11.67;57.04;101225.77;1751681;81;21098;-63
2022/09/09 05:11:32;;;;;;;9.85;4.53;;;;;;;11.72;56.52;101212.27;1746725;81;21095;-63
2022/09/09 05:14:11;;;;;;;9.55;5.12;;;;;;;11.79;56.71;101223.21;1748673;81;21116;-63
2022/09/09 05:16:37;;;;;;;8.65;4.83;;;;;;;11.82;56.29;101224.31;1754770;80;21046;-63
2022/09/09 05:19:04;;;;;;;9.23;4.15;;;;;;;11.82;56.22;101224.31;1750253;81;21142;-62
2022/09/09 05:21:35;;;;;;;6.50;4.15;;;;;;;11.83;56.41;101222.86;1749222;81;21015;-61
2022/09/09 05:24:03;;;;;;;7.25;4.22;;;;;;;11.85;56.61;101219.66;1747955;81;21094;-62
2022/09/09 05:26:31;;;;;;;7.50;4.55;;;;;;;11.83;56.30;101208.35;1752496;81;21059;-63
2022/09/09 05:29:00;;;;;;;8.00;4.42;;;;;;;11.82;56.40;101209.33;1742859;81;22348;-60
2022/09/09 05:31:30;;;;;;;7.80;4.50;;;;;;;11.81;56.57;101208.95;1749176;81;21137;-60
2022/09/09 05:33:56;;;;;;;7.62;4.33;;;;;;;11.82;56.85;101213.28;1724573;81;21075;-60
2022/09/09 05:36:23;;;;;;;8.20;4.05;;;;;;;11.86;56.59;101204.66;1758375;81;21059;-62
2022/09/09 05:38:53;;;;;;;7.80;4.55;;;;;;;11.89;56.12;101203.97;1749173;81;21034;-61
2022/09/09 05:41:20;;;;;;;7.87;4.40;;;;;;;11.92;56.37;101208.22;1749448;79;21026;-61
2022/09/09 05:43:48;;;;;;;7.00;4.17;;;;;;;11.93;56.28;101215.65;1748217;81;21130;-60
2022/09/09 05:46:18;;;;;;;9.03;4.85;;;;;;;11.96;56.46;101220.22;1753598;81;20996;-62
2022/09/09 05:48:47;;;;;;;10.03;4.53;;;;;;;12.00;56.20;101222.16;1749965;80;21029;-61
2022/09/09 05:51:18;;;;;;;6.90;3.83;;;;;;;12.04;56.51;101235.02;1700940;82;21659;-61
2022/09/09 05:53:45;;;;;;;6.47;3.85;;;;;;;12.12;56.40;101220.41;1755860;81;21029;-61
2022/09/09 05:56:15;;;;;;;8.88;4.72;;;;;;;12.27;56.30;101220.59;1751374;81;21533;-61
2022/09/09 05:58:46;;;;;;;8.33;4.00;;;;;;;12.41;55.54;101222.23;1721647;81;21052;-62
2022/09/09 06:01:16;;;;;;;8.68;3.95;;;;;;;12.51;55.46;101231.61;1749392;80;21079;-62
2022/09/09 06:03:44;;;;;;;9.73;4.15;;;;;;;12.61;55.08;101241.88;1751533;80;20993;-62
2022/09/09 06:06:20;;;;;;;7.00;3.83;;;;;;;12.66;55.06;101242.36;1682799;83;21062;-62
2022/09/09 06:08:47;;;;;;;6.22;3.55;;;;;;;12.73;54.52;101243.58;1747944;81;21115;-61
2022/09/09 06:11:30;;;;;;;8.25;4.22;;;;;;;12.78;54.75;101236.64;1754257;80;21113;-63
2022/09/09 06:13:58;;;;;;;9.65;3.87;;;;;;;12.80;54.56;101225.47;1755655;80;21035;-63
2022/09/09 06:16:26;;;;;;;7.62;3.83;;;;;;;12.83;54.81;101222.11;1756257;80;21101;-62
2022/09/09 06:18:54;;;;;;;6.25;3.92;;;;;;;12.89;54.63;101230.03;1746172;81;21055;-63
2022/09/09 06:21:25;;;;;;;7.22;3.60;;;;;;;12.93;54.18;101224.89;1747881;81;21922;-63
2022/09/09 06:23:52;;;;;;;6.92;3.60;;;;;;;12.99;54.32;101236.33;1750565;81;20968;-62
2022/09/09 06:26:25;;;;;;;7.47;3.52;;;;;;;13.08;54.52;101241.38;1746960;81;21074;-65
2022/09/09 06:28:54;;;;;;;7.87;3.92;;;;;;;13.14;54.03;101230.80;1748541;81;21039;-65
2022/09/09 06:31:23;;;;;;;8.38;3.95;;;;;;;13.21;54.27;101232.00;1748822;81;21092;-64
2022/09/09 06:33:51;;;;;;;6.97;3.65;;;;;;;13.29;53.87;101236.70;1744466;81;21106;-63
2022/09/09 06:36:30;;;;;;;9.58;4.25;;;;;;;13.34;53.42;101235.41;1754781;81;21126;-63
2022/09/09 06:38:57;;;;;;;8.13;4.25;;;;;;;13.40;53.57;101241.17;1704769;82;21044;-64
2022/09/09 06:41:26;;;;;;;8.00;4.10;;;;;;;13.48;54.13;101247.56;1749269;80;21062;-65
2022/09/09 06:43:53;;;;;;;7.05;4.03;;;;;;;13.55;53.80;101238.17;1751873;81;21174;-64
2022/09/09 06:46:27;;;;;;;8.13;4.28;;;;;;;13.64;53.16;101243.21;1750644;81;21098;-64
2022/09/09 06:48:55;;;;;;;9.08;4.12;;;;;;;13.71;53.24;101236.46;1733493;80;22161;-66
2022/09/09 06:51:22;;;;;;;5.35;3.05;;;;;;;13.79;52.92;101239.00;1761289;79;21625;-64
2022/09/09 06:53:54;;;;;;;6.62;3.60;;;;;;;13.87;52.55;101239.20;1760102;79;21086;-65
2022/09/09 06:56:27;;;;;;;8.88;3.72;;;;;;;13.96;52.15;101235.83;1769921;78;22670;-65
2022/09/09 06:58:58;;;;;;;8.33;3.75;;;;;;;14.06;52.15;101242.55;1755055;79;21165;-65
2022/09/09 07:01:30;;;;;;;8.65;3.75;;;;;;;14.17;52.30;101241.20;1762610;79;21050;-64
2022/09/09 07:04:01;;;;;;;8.65;3.77;;;;;;;14.30;52.07;101237.04;1757145;79;21015;-64
2022/09/09 07:06:32;;;;;;;6.62;3.72;;;;;;;14.44;51.81;101235.89;1767786;78;21677;-65
2022/09/09 07:09:03;;;;;;;6.10;3.25;;;;;;;14.55;51.64;101234.52;1768880;79;21062;-65
2022/09/09 07:11:33;;;;;;;7.53;3.62;;;;;;;14.65;51.53;101238.11;1766468;78;21054;-65
2022/09/09 07:14:01;;;;;;;5.92;3.22;;;;;;;14.75;50.76;101236.86;1771582;78;21580;-65
2022/09/09 07:16:31;;;;;;;5.37;2.90;;;;;;;14.82;50.43;101226.59;1763805;78;21082;-65
2022/09/09 07:18:57;;;;;;;6.97;3.50;;;;;;;14.87;50.55;101224.38;1761679;79;21532;-65
2022/09/09 07:21:26;;;;;;;5.25;2.50;;;;;;;14.93;50.36;101229.17;1766360;79;21062;-65
2022/09/09 07:23:54;;;;;;;8.98;3.15;;;;;;;15.03;50.30;101234.53;1765583;79;21097;-65
2022/09/09 07:26:23;;;;;;;8.73;2.60;;;;;;;15.13;50.36;101238.54;1752764;78;21095;-65
2022/09/09 07:28:51;;;;;;;6.72;2.52;;;;;;;15.22;49.39;101232.46;1710959;82;21035;-65
2022/09/09 07:31:21;;;;;;;6.12;2.90;;;;;;;15.31;49.31;101238.77;1700789;82;21143;-65
2022/09/09 07:33:48;;;;;;;6.10;2.40;;;;;;;15.36;49.12;101224.13;1777098;79;21602;-65
2022/09/09 07:36:22;;;;;;;5.85;1.95;;;;;;;15.45;48.94;101224.31;1774121;80;21119;-65
2022/09/09 07:38:53;;;;;;;6.25;2.20;;;;;;;15.51;48.55;101222.45;1768962;79;22405;-65
2022/09/09 07:41:32;;;;;;;4.67;1.60;;;;;;;15.53;48.35;101217.38;1717504;82;21066;-65
2022/09/09 07:44:00;;;;;;;5.22;1.70;;;;;;;15.57;48.12;101223.25;1704386;82;21154;-64
2022/09/09 07:46:26;;;;;;;6.70;1.80;;;;;;;15.61;47.44;101216.19;1764392;80;21102;-64
2022/09/09 07:48:55;;;;;;;5.22;1.37;;;;;;;15.70;47.07;101219.02;1762826;79;21239;-65
2022/09/09 07:51:26;;;;;;;3.85;1.50;;;;;;;15.79;46.65;101217.74;1754519;79;21098;-64
2022/09/09 07:54:02;;;;;;;4.80;1.75;;;;;;;15.91;46.74;101223.77;1760420;79;21560;-64
2022/09/09 07:56:30;;;;;;;4.10;1.57;;;;;;;16.01;46.55;101217.16;1754741;79;21052;-64
2022/09/09 07:58:59;;;;;;;6.30;1.70;;;;;;;16.09;46.33;101219.96;1755607;79;21081;-64
2022/09/09 08:03:38;;;;;;;5.60;1.85;;;;;;;16.34;45.00;101212.44;1793904;79;22692;-67
2022/09/09 08:06:08;;;;;;;4.40;1.50;;;;;;;16.40;43.89;101211.85;1768672;80;21050;-69
2022/09/09 08:08:36;;;;;;;3.02;1.20;;;;;;;16.44;44.59;101216.39;1730035;81;21219;-65
2022/09/09 08:11:11;;;;;;;3.65;1.27;;;;;;;16.51;44.19;101223.67;1697004;83;21264;-67
2022/09/09 08:13:39;;;;;;;4.95;1.25;;;;;;;16.58;42.77;101223.11;1708502;81;21061;-66
2022/09/09 08:16:18;;;;;;;3.58;0.95;;;;;;;16.62;43.17;101215.19;1707562;81;21062;-68
2022/09/09 08:18:45;;;;;;;3.60;1.30;;;;;;;16.68;43.77;101214.64;1735564;81;21046;-68
2022/09/09 08:21:14;;;;;;;2.85;1.10;;;;;;;16.76;43.63;101216.09;1729176;81;21143;-66
2022/09/09 08:23:43;;;;;;;3.22;1.20;;;;;;;16.86;43.31;101215.61;1704428;83;21003;-65
2022/09/09 08:26:16;;;;;;;4.53;1.27;;;;;;;16.97;42.96;101215.92;1705421;81;21094;-65
2022/09/09 08:28:43;;;;;;;2.90;1.15;;;;;;;17.09;42.51;101220.57;1709704;83;21119;-64
2022/09/09 08:31:16;;;;;;;4.05;1.52;;;;;;;17.21;42.39;101223.38;1710618;83;21544;-66
2022/09/09 08:33:45;;;;;;;3.77;1.30;;;;;;;17.33;41.45;101219.22;1739158;81;21869;-69
2022/09/09 08:36:15;;;;;;;2.95;1.25;;;;;;;17.44;41.56;101217.70;1720236;82;21102;-64
2022/09/09 08:38:42;;;;;;;3.80;1.52;;;;;;;17.58;42.20;101217.20;1721657;82;21584;-69
2022/09/09 08:41:26;;;;;;;5.10;1.50;;;;;;;17.67;41.31;101212.83;1720486;82;21075;-62
2022/09/09 08:44:20;;;;;;;3.55;1.20;;;;;;;17.78;41.45;101213.11;1692002;82;21130;-65
2022/09/09 08:47:01;;;;;;;3.45;1.42;;;;;;;17.86;40.03;101215.03;1714143;82;21154;-69
2022/09/09 08:49:58;;;;;;;3.45;1.40;;;;;;;17.90;39.70;101213.26;1717833;82;21122;-62
2022/09/09 08:52:30;;;;;;;2.95;1.15;;;;;;;17.92;39.76;101207.31;1711151;82;21145;-62
2022/09/09 08:55:05;;;;;;;5.65;1.27;;;;;;;17.99;40.82;101212.37;1713924;82;21197;-61
2022/09/09 08:57:32;;;;;;;3.17;1.27;;;;;;;18.06;40.44;101201.12;1715091;82;26076;-69
2022/09/09 08:59:59;;;;;;;3.77;1.05;;;;;;;18.13;40.35;101206.17;1673597;82;21128;-68
2022/09/09 09:02:46;;;;;;;4.55;1.07;;;;;;;18.18;39.99;101192.73;1709914;82;21079;-69
2022/09/09 09:05:47;;;;;;;8.10;2.22;;;;;;;18.25;39.65;101187.62;1747245;80;21019;-70
2022/09/09 09:08:31;;;;;;;13.58;7.37;;;;;;;18.32;39.41;101180.69;1709375;82;21182;-66
2022/09/09 09:10:58;;;;;;;3.98;1.62;;;;;;;18.37;39.19;101179.75;1701757;82;21068;-64
2022/09/09 09:13:55;;;;;;;4.40;1.10;;;;;;;18.40;38.01;101167.94;1737454;80;21132;-57
2022/09/09 09:16:28;;;;;;;4.50;1.17;;;;;;;18.43;38.46;101170.80;1707563;82;21133;-65
2022/09/09 09:18:54;;;;;;;4.28;1.30;;;;;;;18.46;37.96;101174.46;1739008;80;21558;-63
2022/09/09 09:22:06;;;;;;;2.92;1.00;;;;;;;18.49;38.65;101186.15;1750779;80;21043;-63
2022/09/09 09:24:54;;;;;;;3.65;1.30;;;;;;;18.57;38.30;101186.21;1700875;83;21719;-68
2022/09/09 09:27:35;;;;;;;4.05;1.05;;;;;;;18.69;38.79;101173.46;1751875;80;21104;-64
2022/09/09 09:30:17;;;;;;;6.50;1.42;;;;;;;18.84;38.69;101183.09;1761090;80;20995;-65
2022/09/09 09:33:02;;;;;;;3.98;1.12;;;;;;;18.96;37.35;101176.98;1709344;80;21086;-66
2022/09/09 09:35:30;;;;;;;4.62;1.22;;;;;;;19.10;37.75;101180.41;1757547;80;21062;-66
2022/09/09 09:37:57;;;;;;;3.42;1.17;;;;;;;19.27;37.88;101174.65;1759219;80;21132;-66
2022/09/09 09:40:23;;;;;;;3.40;1.10;;;;;;;19.39;36.53;101174.69;1755196;80;21243;-66
2022/09/09 09:42:59;;;;;;;3.58;1.35;;;;;;;19.49;36.73;101179.39;1751992;80;21007;-69
2022/09/09 09:45:44;;;;;;;3.02;1.22;;;;;;;19.55;37.11;101169.91;1754568;80;20950;-66
2022/09/09 09:48:12;;;;;;;3.83;1.10;;;;;;;19.58;36.39;101170.90;1752249;80;20919;-63
2022/09/09 09:50:58;;;;;;;5.85;1.27;;;;;;;19.63;35.61;101165.08;1750280;80;21619;-70
2022/09/09 09:53:31;;;;;;;;;;;;;;;19.66;36.33;101154.91;1699081;82;21332;-67
2022/09/09 09:56:04;;;;;;;5.15;1.20;;;;;;;19.76;35.51;101160.64;1686829;84;20511;-66
2022/09/09 09:58:34;;;;;;;4.03;1.15;;;;;;;19.78;36.27;101155.45;1748620;80;21082;-65
2022/09/09 10:01:01;;;;;;;3.33;1.32;;;;;;;19.81;35.91;101159.65;1753063;80;21039;-71
2022/09/09 10:03:38;;;;;;;5.20;1.85;;;;;;;19.84;35.90;101161.48;1725564;82;21135;-67
2022/09/09 10:06:05;;;;;;;4.58;2.10;;;;;;;19.90;36.23;101158.64;1702127;82;21289;-67
2022/09/09 10:08:34;;;;;;;4.08;1.22;;;;;;;19.94;36.57;101165.34;1729026;82;21117;-59
2022/09/09 10:11:19;;;;;;;5.05;1.45;;;;;;;19.93;34.93;101158.83;1715336;82;21509;-64
2022/09/09 10:14:22;;;;;;;7.08;1.62;;;;;;;19.91;36.16;101158.17;1737672;82;21071;-67
2022/09/09 10:17:11;;;;;;;5.42;1.40;;;;;;;19.93;35.58;101158.83;1704656;83;21070;-70
2022/09/09 10:19:38;;;;;;;4.15;1.45;;;;;;;19.96;35.67;101158.50;1709897;82;21209;-68
2022/09/09 10:22:30;;;;;;;3.92;1.30;;;;;;;19.97;35.45;101161.48;1701235;83;21543;-64
2022/09/09 10:25:21;;;;;;;3.80;1.25;;;;;;;20.00;35.50;101169.17;1711088;83;21121;-66
2022/09/09 10:28:02;;;;;;;3.60;1.32;;;;;;;20.08;35.22;101166.52;1705872;83;21050;-62
2022/09/09 10:30:52;;;;;;;2.75;0.98;;;;;;;20.16;34.77;101165.70;1700410;83;21687;-62
2022/09/09 10:34:02;;;;;;;3.75;1.30;;;;;;;20.23;35.01;101166.18;1705986;83;21222;-62
2022/09/09 10:36:29;;;;;;;4.62;1.20;;;;;;;20.27;34.90;101157.33;1717671;83;21074;-64
2022/09/09 10:39:06;;;;;;;3.30;1.30;;;;;;;20.42;36.21;101156.15;1707512;83;21367;-64
2022/09/09 10:42:09;;;;;;;3.90;1.35;;;;;;;20.55;35.21;101155.13;1712232;83;21109;-63
2022/09/09 10:45:01;;;;;;;5.40;1.50;;;;;;;20.72;34.84;101153.80;1714651;83;21066;-63
2022/09/09 10:48:06;;;;;;;4.05;1.52;;;;;;;20.89;34.17;101146.56;1710226;82;21151;-65
2022/09/09 10:50:47;;;;;;;3.05;1.12;;;;;;;21.05;34.18;101145.69;1702428;82;21490;-64
2022/09/09 10:53:34;;;;;;;8.53;2.30;;;;;;;21.10;33.21;101136.13;1706513;82;21387;-65
2022/09/09 10:56:08;;;;;;;3.15;1.00;;;;;;;21.12;33.09;101135.95;1710708;83;21047;-64
2022/09/09 10:58:47;;;;;;;7.92;2.33;;;;;;;21.14;32.88;101133.41;1714714;82;20998;-67
2022/09/09 11:01:21;;;;;;;6.40;1.67;;;;;;;21.18;32.98;101137.91;1704694;83;21092;-64
2022/09/09 11:03:53;;;;;;;4.03;1.25;;;;;;;21.21;32.83;101143.44;1706089;82;21094;-67
2022/09/09 11:06:21;;;;;;;6.12;1.07;;;;;;;21.24;32.89;101145.77;1714464;83;21710;-65
2022/09/09 11:08:49;;;;;;;2.87;0.98;;;;;;;21.26;32.65;101147.24;1706240;83;21102;-61
2022/09/09 11:11:36;;;;;;;3.08;1.25;;;;;;;21.28;32.25;101148.41;1711669;83;21050;-62
2022/09/09 11:14:32;;;;;;;2.80;0.70;;;;;;;21.25;31.99;101148.75;1713488;83;21179;-63
2022/09/09 11:17:07;;;;;;;2.35;0.75;;;;;;;21.24;31.87;101157.30;1706186;82;21664;-62
2022/09/09 11:19:39;;;;;;;5.83;1.45;;;;;;;21.26;32.79;101162.48;1709989;83;21066;-62
2022/09/09 11:22:23;;;;;;;3.47;1.00;;;;;;;21.25;32.97;101160.31;1733825;82;21134;-62
2022/09/09 11:25:17;;;;;;;2.62;0.88;;;;;;;21.26;32.34;101151.26;1705530;82;21083;-61
2022/09/09 11:27:58;;;;;;;3.30;1.10;;;;;;;21.28;32.13;101154.62;1702183;83;21154;-63
2022/09/09 11:30:48;;;;;;;4.00;1.10;;;;;;;21.29;32.23;101146.90;1718695;82;21081;-63
2022/09/09 11:33:49;;;;;;;3.47;1.10;;;;;;;21.27;32.35;101147.58;1711040;83;21593;-64
2022/09/09 11:36:43;;;;;;;3.08;1.00;;;;;;;21.24;31.96;101146.59;1710927;83;21126;-63
2022/09/09 11:39:40;;;;;;;3.50;0.82;;;;;;;21.24;31.94;101157.81;1697975;82;21061;-63
2022/09/09 11:42:18;;;;;;;3.12;1.17;;;;;;;21.23;32.00;101149.44;1712128;83;21147;-64
2022/09/09 11:44:45;;;;;;;5.78;1.02;;;;;;;21.19;31.99;101146.28;1703432;82;21007;-64
2022/09/09 11:47:29;;;;;;;3.27;1.07;;;;;;;21.13;32.64;101149.64;1707562;83;21117;-64
2022/09/09 11:50:12;;;;;;;10.05;1.00;;;;;;;21.11;32.84;101142.30;1704540;83;21714;-63
2022/09/09 11:52:46;;;;;;;4.03;0.95;;;;;;;21.09;32.67;101141.13;1680420;83;21036;-62
2022/09/09 11:55:34;;;;;;;2.65;0.80;;;;;;;21.07;32.32;101144.49;1711239;83;21138;-63
2022/09/09 11:58:08;;;;;;;5.90;1.30;;;;;;;21.04;32.83;101143.50;1707484;82;21158;-61
2022/09/09 12:00:42;;;;;;;3.10;0.90;;;;;;;20.97;33.18;101135.33;1704372;83;21098;-62
2022/09/09 12:03:43;;;;;;;4.15;0.88;;;;;;;20.90;33.32;101126.33;1698028;83;21147;-63